Terminal Aerodrome Forecast
Issued by NWS

Home | Current Version | Previous Version | Text Only | Print | Product List | Glossary On
Versions: 1 2 3 4 5 6 7 8 9 10 11 12 13 14 15 16 17 18 19 20 21 22 23 24 25 26 27
000
FTUS43 KOAX 282338
TAFSNY
TAF
KSNY 282338Z 2900/2924 04015KT 4SM -FZDZSN OVC008
     FM290300 03013KT 5SM -SN OVC012
     FM290600 02012KT P6SM OVC025
     FM291500 02012KT P6SM OVC035=

USA.gov is the U.S. government's official web portal to all federal, state and local government web resources and services.